Time;durP1;ratioP1;P1;durP2;ratioP2;P2;SDS_P1;SDS_P2;PMS_P1;PMS_P2;Temp;Humidity;BMP_temperature;BMP_pressure;BME280_temperature;BME280_humidity;BME280_pressure;Samples;Min_cycle;Max_cycle;Signal;HPM_P1;HPM_P2
2022/07/25 00:01:25;;;;;;;10.60;9.70;;;;;;;21.79;88.83;96464.53;5057762;28;20195;-53
2022/07/25 00:03:53;;;;;;;11.00;9.45;;;;;;;21.79;88.86;96456.47;5057115;28;20210;-54
2022/07/25 00:06:20;;;;;;;10.05;9.25;;;;;;;21.79;88.66;96459.97;5057902;28;20330;-54
2022/07/25 00:08:46;;;;;;;11.05;9.82;;;;;;;21.75;89.60;96461.44;5058100;28;20591;-52
2022/07/25 00:11:13;;;;;;;10.32;9.43;;;;;;;21.77;89.39;96464.78;5057850;28;20610;-54
2022/07/25 00:13:39;;;;;;;10.05;9.25;;;;;;;21.80;88.59;96458.94;5056785;28;20262;-53
2022/07/25 00:16:06;;;;;;;10.63;9.60;;;;;;;21.70;91.04;96458.59;5053906;28;20290;-54
2022/07/25 00:18:33;;;;;;;10.20;9.40;;;;;;;21.69;90.69;96448.03;5057093;28;20199;-54
2022/07/25 00:21:01;;;;;;;9.85;9.15;;;;;;;21.65;91.01;96454.91;5056802;28;20238;-52
2022/07/25 00:23:28;;;;;;;10.02;9.02;;;;;;;21.57;93.12;96445.25;5056928;28;20208;-53
2022/07/25 00:25:54;;;;;;;10.85;9.95;;;;;;;21.54;93.12;96452.91;5056163;28;20669;-54
2022/07/25 00:28:21;;;;;;;10.80;9.93;;;;;;;21.63;91.66;96449.75;5048354;28;20290;-53
2022/07/25 00:30:48;;;;;;;10.30;9.50;;;;;;;21.54;93.32;96451.03;5051735;28;20264;-53
2022/07/25 00:33:15;;;;;;;10.10;9.20;;;;;;;21.56;92.52;96454.34;5055663;28;20693;-54
2022/07/25 00:35:41;;;;;;;10.20;9.35;;;;;;;21.54;92.78;96456.41;5056628;28;20604;-53
2022/07/25 00:38:09;;;;;;;11.30;10.20;;;;;;;21.57;92.41;96449.78;5056882;28;20203;-53
2022/07/25 00:40:38;;;;;;;10.60;9.85;;;;;;;21.52;93.41;96447.75;5056078;28;20214;-54
2022/07/25 00:43:04;;;;;;;11.38;10.45;;;;;;;21.56;93.31;96453.50;5056148;28;20226;-52
2022/07/25 00:45:31;;;;;;;10.25;9.32;;;;;;;21.50;94.49;96449.84;5056322;28;20580;-53
2022/07/25 00:47:58;;;;;;;10.82;10.00;;;;;;;21.42;95.38;96455.47;5056143;28;20270;-52
2022/07/25 00:50:25;;;;;;;10.82;10.00;;;;;;;21.37;96.56;96457.97;5056762;28;20219;-53
2022/07/25 00:52:52;;;;;;;10.52;9.73;;;;;;;21.32;96.88;96449.72;5045850;28;20227;-53
2022/07/25 00:55:21;;;;;;;10.60;9.80;;;;;;;21.44;94.93;96455.22;5053110;28;20273;-56
2022/07/25 00:57:47;;;;;;;11.07;10.10;;;;;;;21.45;93.70;96463.09;5055436;28;20243;-53
2022/07/25 01:00:15;;;;;;;11.18;10.25;;;;;;;21.37;95.35;96454.44;5056089;28;20644;-54
2022/07/25 01:02:42;;;;;;;11.23;10.32;;;;;;;21.33;96.63;96459.41;5056021;28;20284;-54
2022/07/25 01:05:09;;;;;;;11.32;10.38;;;;;;;21.20;97.39;96454.13;5056138;28;20592;-53
2022/07/25 01:07:37;;;;;;;10.95;10.07;;;;;;;21.23;97.17;96451.81;5056144;28;20225;-53
2022/07/25 01:10:05;;;;;;;10.27;9.43;;;;;;;21.22;97.73;96452.84;5055591;28;20215;-53
2022/07/25 01:12:44;;;;;;;11.52;10.63;;;;;;;21.19;97.47;96450.59;5055631;28;20221;-52
2022/07/25 01:15:10;;;;;;;11.13;10.25;;;;;;;21.26;96.27;96464.00;5055419;28;20206;-53
2022/07/25 01:17:37;;;;;;;11.25;10.25;;;;;;;21.23;97.22;96453.69;5055030;28;20222;-53
2022/07/25 01:20:04;;;;;;;11.80;10.77;;;;;;;21.19;97.21;96449.75;5054306;28;20290;-53
2022/07/25 01:22:32;;;;;;;11.52;10.63;;;;;;;21.11;99.03;96445.47;5055674;28;20597;-54
2022/07/25 01:24:59;;;;;;;12.77;11.68;;;;;;;21.13;98.33;96451.47;5055060;28;20665;-53
2022/07/25 01:27:26;;;;;;;11.50;10.43;;;;;;;21.13;97.83;96447.94;5055494;28;20280;-53
2022/07/25 01:29:53;;;;;;;11.25;10.35;;;;;;;21.06;99.63;96449.78;5055646;28;20215;-53
2022/07/25 01:32:19;;;;;;;12.05;10.90;;;;;;;21.16;97.26;96450.19;5055416;28;20215;-54
2022/07/25 01:34:46;;;;;;;11.85;10.85;;;;;;;21.11;97.87;96445.47;5055619;28;20273;-53
2022/07/25 01:37:14;;;;;;;11.77;10.88;;;;;;;20.98;99.86;96450.84;5055317;28;20207;-53
2022/07/25 01:39:42;;;;;;;11.80;10.68;;;;;;;21.09;98.75;96447.50;5048096;28;20211;-53
2022/07/25 01:42:08;;;;;;;11.63;10.63;;;;;;;21.06;98.31;96442.56;5050593;28;20369;-53
2022/07/25 01:44:35;;;;;;;11.20;10.40;;;;;;;21.01;99.92;96446.94;5062999;28;20233;-53
2022/07/25 01:47:01;;;;;;;11.10;10.13;;;;;;;20.95;100.00;96445.06;5056201;28;20199;-53
2022/07/25 01:49:28;;;;;;;12.70;10.75;;;;;;;20.92;100.00;96434.75;5062404;28;20272;-53
2022/07/25 01:51:55;;;;;;;11.13;10.23;;;;;;;20.94;100.00;96435.38;5055562;28;20200;-53
2022/07/25 01:54:21;;;;;;;11.77;10.65;;;;;;;20.89;100.00;96436.00;5054738;28;20652;-53
2022/07/25 01:56:49;;;;;;;12.50;11.50;;;;;;;20.86;100.00;96441.81;5053810;28;20268;-53
2022/07/25 01:59:16;;;;;;;11.27;10.45;;;;;;;20.91;100.00;96438.47;5044085;28;20593;-52
2022/07/25 02:01:43;;;;;;;11.63;10.80;;;;;;;20.91;100.00;96441.16;5055077;28;20234;-54
2022/07/25 02:04:10;;;;;;;11.38;10.48;;;;;;;20.86;100.00;96436.44;5055316;28;20207;-53
2022/07/25 02:06:36;;;;;;;11.82;10.93;;;;;;;20.82;100.00;96440.59;5054622;28;20590;-53
2022/07/25 02:09:04;;;;;;;11.73;10.82;;;;;;;20.81;100.00;96430.88;5046354;28;20243;-54
2022/07/25 02:11:30;;;;;;;11.77;10.68;;;;;;;20.72;100.00;96424.91;5050547;28;20211;-54
2022/07/25 02:13:58;;;;;;;12.02;11.02;;;;;;;20.73;100.00;96431.91;5054724;28;20269;-53
2022/07/25 02:16:25;;;;;;;12.65;11.55;;;;;;;20.74;100.00;96428.19;5055223;28;20215;-53
2022/07/25 02:18:52;;;;;;;11.70;10.70;;;;;;;20.70;100.00;96426.13;5054701;28;20215;-53
2022/07/25 02:21:18;;;;;;;12.07;11.18;;;;;;;20.68;100.00;96418.31;5055078;28;20764;-54
2022/07/25 02:23:45;;;;;;;11.75;10.80;;;;;;;20.64;100.00;96424.31;5054704;28;20213;-54
2022/07/25 02:26:12;;;;;;;12.57;11.32;;;;;;;20.63;100.00;96423.47;5055548;28;20214;-53
2022/07/25 02:28:39;;;;;;;12.40;11.50;;;;;;;20.61;100.00;96428.25;5055718;28;20213;-52
2022/07/25 02:31:07;;;;;;;12.57;11.48;;;;;;;20.63;100.00;96419.97;5055169;28;20219;-53
2022/07/25 02:33:34;;;;;;;13.15;12.05;;;;;;;20.67;100.00;96426.56;5054509;28;20269;-52
2022/07/25 02:36:00;;;;;;;12.80;11.70;;;;;;;20.60;100.00;96417.69;5054573;28;20257;-53
2022/07/25 02:38:27;;;;;;;12.48;11.23;;;;;;;20.62;100.00;96416.44;5054862;28;20547;-52
2022/07/25 02:40:54;;;;;;;12.93;11.80;;;;;;;20.55;100.00;96423.69;5054177;28;20648;-54
2022/07/25 02:43:20;;;;;;;12.40;11.40;;;;;;;20.53;100.00;96415.03;5054119;28;20590;-53
2022/07/25 02:45:47;;;;;;;12.15;11.10;;;;;;;20.48;100.00;96420.19;5054449;28;20214;-53
2022/07/25 02:48:15;;;;;;;13.25;12.25;;;;;;;20.54;100.00;96419.38;5054090;28;20277;-54
2022/07/25 02:50:42;;;;;;;12.68;11.63;;;;;;;20.49;100.00;96413.81;5054549;28;20207;-53
2022/07/25 02:53:08;;;;;;;13.65;12.48;;;;;;;20.44;100.00;96410.91;5054660;28;20211;-53
2022/07/25 02:55:35;;;;;;;13.05;11.95;;;;;;;20.41;100.00;96411.31;5056169;28;20269;-53
2022/07/25 02:58:02;;;;;;;12.52;11.48;;;;;;;20.38;100.00;96409.06;5058315;28;20235;-53
2022/07/25 03:00:29;;;;;;;13.35;12.18;;;;;;;20.33;100.00;96408.88;5058175;28;20211;-53
2022/07/25 03:02:55;;;;;;;13.13;11.93;;;;;;;20.28;100.00;96401.44;5058249;28;20222;-53
2022/07/25 03:05:24;;;;;;;13.20;12.20;;;;;;;20.28;100.00;96401.44;5058304;28;20210;-54
2022/07/25 03:07:51;;;;;;;13.55;12.50;;;;;;;20.25;100.00;96406.38;5057640;28;20713;-53
2022/07/25 03:10:18;;;;;;;13.00;12.00;;;;;;;20.30;100.00;96401.22;5051869;28;20207;-53
2022/07/25 03:12:45;;;;;;;13.20;12.20;;;;;;;20.27;100.00;96401.63;5051568;28;20253;-53
2022/07/25 03:15:12;;;;;;;12.98;11.88;;;;;;;20.24;100.00;96399.34;5058646;28;20231;-51
2022/07/25 03:17:39;;;;;;;13.85;12.77;;;;;;;20.20;100.00;96409.69;5061575;28;20233;-54
2022/07/25 03:20:07;;;;;;;13.30;12.20;;;;;;;20.17;100.00;96406.59;5072247;28;20203;-52
2022/07/25 03:22:36;;;;;;;13.85;12.55;;;;;;;20.15;100.00;96409.50;5071351;28;20275;-53
2022/07/25 03:25:03;;;;;;;12.57;11.57;;;;;;;20.20;100.00;96417.75;5057841;28;20295;-53
2022/07/25 03:27:30;;;;;;;13.95;12.82;;;;;;;20.21;100.00;96410.50;5057972;28;20246;-53
2022/07/25 03:29:57;;;;;;;13.80;12.60;;;;;;;20.14;100.00;96407.84;5060124;28;20268;-53
2022/07/25 03:32:23;;;;;;;12.57;11.55;;;;;;;20.12;100.00;96403.72;5068368;28;20234;-54
2022/07/25 03:34:50;;;;;;;13.85;12.55;;;;;;;20.09;100.00;96401.44;5071492;28;20257;-53
2022/07/25 03:37:16;;;;;;;13.57;12.48;;;;;;;20.09;100.00;96406.78;5066497;28;20301;-53
2022/07/25 03:39:45;;;;;;;14.02;12.90;;;;;;;20.02;100.00;96400.59;5057288;28;20405;-53
2022/07/25 03:42:12;;;;;;;14.13;12.70;;;;;;;19.99;100.00;96403.72;5057905;28;20238;-53
2022/07/25 03:44:38;;;;;;;13.25;12.15;;;;;;;20.04;100.00;96403.94;5058900;28;20556;-55
2022/07/25 03:47:05;;;;;;;13.68;12.57;;;;;;;20.01;100.00;96402.50;5057273;28;20270;-53
2022/07/25 03:49:32;;;;;;;14.70;13.23;;;;;;;19.94;100.00;96403.53;5075524;28;20262;-53
2022/07/25 03:51:59;;;;;;;13.70;12.45;;;;;;;19.90;100.00;96402.28;5075911;28;20211;-53
2022/07/25 03:54:25;;;;;;;13.48;12.45;;;;;;;19.85;100.00;96411.78;5066884;28;20223;-53
2022/07/25 03:56:53;;;;;;;13.32;12.20;;;;;;;19.83;100.00;96403.13;5059619;28;20211;-52
2022/07/25 03:59:21;;;;;;;13.65;12.45;;;;;;;19.84;100.00;96406.59;5059464;28;20218;-53
2022/07/25 04:01:49;;;;;;;13.18;12.18;;;;;;;19.88;100.00;96406.00;5057104;28;20232;-52
2022/07/25 04:04:16;;;;;;;13.80;12.68;;;;;;;19.85;100.00;96413.63;5057323;28;20203;-53
2022/07/25 04:06:43;;;;;;;13.93;12.75;;;;;;;19.84;100.00;96412.78;5055692;28;20203;-52
2022/07/25 04:09:10;;;;;;;13.93;12.77;;;;;;;19.90;100.00;96415.69;5056782;28;20269;-54
2022/07/25 04:11:37;;;;;;;14.65;13.27;;;;;;;19.90;100.00;96410.34;5056790;28;20242;-53
2022/07/25 04:14:06;;;;;;;13.68;12.50;;;;;;;19.88;100.00;96406.00;5056836;28;20605;-52
2022/07/25 04:16:32;;;;;;;14.07;13.00;;;;;;;19.85;100.00;96409.09;5057101;28;20261;-52
2022/07/25 04:18:59;;;;;;;13.95;12.75;;;;;;;19.88;100.00;96408.66;5056475;28;20203;-54
2022/07/25 04:21:26;;;;;;;13.85;12.75;;;;;;;19.86;100.00;96413.44;5056909;28;20257;-53
2022/07/25 04:23:53;;;;;;;13.95;12.82;;;;;;;19.96;100.00;96420.22;5056365;28;20238;-53
2022/07/25 04:26:20;;;;;;;14.48;13.25;;;;;;;20.00;100.00;96429.53;5056568;28;20652;-52
2022/07/25 04:28:47;;;;;;;15.15;13.85;;;;;;;20.02;100.00;96411.34;5055705;28;20610;-53
2022/07/25 04:31:15;;;;;;;14.55;13.27;;;;;;;20.01;100.00;96417.75;5056646;28;20235;-53
2022/07/25 04:33:42;;;;;;;14.32;13.25;;;;;;;20.11;100.00;96410.94;5057147;28;20358;-52
2022/07/25 04:36:09;;;;;;;15.05;13.65;;;;;;;20.18;100.00;96410.94;5057125;28;20651;-53
2022/07/25 04:38:35;;;;;;;14.95;13.65;;;;;;;20.28;100.00;96408.69;5056462;28;20627;-52
2022/07/25 04:41:03;;;;;;;14.35;13.18;;;;;;;20.42;100.00;96412.97;5056369;28;20635;-54
2022/07/25 04:43:29;;;;;;;14.68;13.20;;;;;;;20.65;100.00;96409.84;5056830;28;20234;-53
2022/07/25 04:45:56;;;;;;;14.52;13.43;;;;;;;21.07;100.00;96413.81;5056788;28;20246;-54
2022/07/25 04:48:24;;;;;;;13.85;12.70;;;;;;;21.73;100.00;96412.41;5057554;28;20286;-53
2022/07/25 04:50:51;;;;;;;14.27;13.18;;;;;;;22.43;97.72;96418.47;5058352;28;20677;-53
2022/07/25 04:53:18;;;;;;;12.77;11.73;;;;;;;22.78;93.64;96407.94;5059734;28;20203;-53
2022/07/25 04:55:44;;;;;;;13.00;11.93;;;;;;;22.84;91.87;96414.34;5060770;28;20223;-53
2022/07/25 04:58:11;;;;;;;12.80;11.90;;;;;;;23.12;89.68;96401.13;5061207;28;20207;-53
2022/07/25 05:00:38;;;;;;;12.75;11.70;;;;;;;23.40;87.51;96414.03;5066548;28;20200;-51
2022/07/25 05:03:05;;;;;;;13.07;12.00;;;;;;;23.39;87.90;96406.97;5078629;28;20183;-52
2022/07/25 05:05:32;;;;;;;13.35;12.15;;;;;;;23.28;86.94;96406.69;5078957;28;20263;-54
2022/07/25 05:07:59;;;;;;;12.57;11.57;;;;;;;23.03;90.43;96414.09;5074119;28;20271;-52
2022/07/25 05:10:27;;;;;;;13.18;12.13;;;;;;;23.31;88.78;96411.63;5077748;28;20258;-52
2022/07/25 05:12:54;;;;;;;12.40;11.45;;;;;;;23.47;88.51;96410.22;5078380;28;20203;-53
2022/07/25 05:15:21;;;;;;;14.20;12.90;;;;;;;23.50;87.72;96415.16;5076575;28;20257;-53
2022/07/25 05:17:48;;;;;;;12.55;11.55;;;;;;;23.47;88.66;96407.53;5078086;28;20190;-53
2022/07/25 05:20:14;;;;;;;13.40;12.25;;;;;;;23.44;88.31;96413.38;5078582;28;20270;-53
2022/07/25 05:22:43;;;;;;;13.15;12.05;;;;;;;23.46;89.54;96416.66;5078655;28;20182;-53
2022/07/25 05:25:10;;;;;;;17.58;12.98;;;;;;;23.44;88.54;96415.25;5077925;28;20207;-54
2022/07/25 05:27:37;;;;;;;13.85;12.57;;;;;;;23.39;89.92;96418.59;5057762;28;20234;-53
2022/07/25 05:30:07;;;;;;;13.68;12.55;;;;;;;23.47;88.70;96414.78;5054270;28;20235;-53
2022/07/25 05:32:34;;;;;;;13.98;12.65;;;;;;;23.61;88.35;96408.97;5055299;28;20235;-52
2022/07/25 05:35:01;;;;;;;13.75;11.90;;;;;;;23.65;88.32;96412.88;5055419;28;20273;-52
2022/07/25 05:37:27;;;;;;;12.85;11.90;;;;;;;23.73;88.93;96415.25;5055146;28;20214;-52
2022/07/25 05:39:55;;;;;;;12.98;11.98;;;;;;;23.77;89.02;96416.41;5054944;28;20221;-53
2022/07/25 05:42:22;;;;;;;13.77;12.68;;;;;;;23.96;88.64;96413.63;5054856;28;20239;-53
2022/07/25 05:44:48;;;;;;;13.57;12.35;;;;;;;24.06;86.38;96420.09;5054608;28;20282;-53
2022/07/25 05:47:15;;;;;;;14.07;12.88;;;;;;;24.10;86.20;96412.34;5054194;28;20238;-53
2022/07/25 05:49:42;;;;;;;12.98;11.88;;;;;;;24.34;85.99;96411.34;5054981;28;20203;-53
2022/07/25 05:52:08;;;;;;;12.80;11.77;;;;;;;24.50;84.15;96412.53;5057221;28;20209;-53
2022/07/25 05:54:35;;;;;;;13.20;12.20;;;;;;;24.62;82.17;96413.34;5064514;28;20229;-53
2022/07/25 05:57:03;;;;;;;13.23;12.13;;;;;;;24.75;83.79;96405.81;5066368;28;20518;-54
2022/07/25 05:59:30;;;;;;;13.90;12.65;;;;;;;24.86;82.02;96409.59;5046555;28;20250;-53
2022/07/25 06:01:56;;;;;;;14.20;12.70;;;;;;;25.07;82.12;96405.41;5057753;28;20253;-54
2022/07/25 06:04:23;;;;;;;13.32;12.13;;;;;;;25.22;79.60;96411.16;5058605;28;20202;-52
2022/07/25 06:06:51;;;;;;;18.52;12.93;;;;;;;25.42;80.02;96408.81;5054987;28;20572;-54
2022/07/25 06:09:18;;;;;;;13.98;12.52;;;;;;;25.55;79.06;96407.72;5054219;28;20218;-53
2022/07/25 06:11:44;;;;;;;12.88;11.68;;;;;;;25.77;77.74;96411.41;5054448;28;20228;-54
2022/07/25 06:14:12;;;;;;;12.95;11.73;;;;;;;25.93;77.73;96404.38;5054665;28;20221;-54
2022/07/25 06:16:39;;;;;;;13.18;12.18;;;;;;;26.11;75.82;96407.63;5054514;28;20234;-54
2022/07/25 06:19:06;;;;;;;12.35;11.35;;;;;;;26.10;75.19;96405.19;5054686;28;20253;-53
2022/07/25 06:21:32;;;;;;;12.68;11.68;;;;;;;26.48;74.16;96401.75;5054364;28;20195;-53
2022/07/25 06:23:59;;;;;;;15.00;13.50;;;;;;;26.56;73.10;96391.31;5054978;28;20253;-54
2022/07/25 06:26:26;;;;;;;13.63;12.30;;;;;;;26.62;73.28;96395.72;5054480;28;20659;-55
2022/07/25 06:28:52;;;;;;;12.95;11.75;;;;;;;26.78;72.36;96385.91;5055199;28;20207;-53
2022/07/25 06:31:20;;;;;;;13.32;12.15;;;;;;;27.11;70.47;96393.13;5058135;28;20209;-53
2022/07/25 06:33:47;;;;;;;13.50;12.35;;;;;;;27.33;66.49;96395.84;5058709;28;20217;-54
2022/07/25 06:36:14;;;;;;;12.30;11.40;;;;;;;27.39;68.91;96395.63;5057663;28;20233;-52
2022/07/25 06:38:40;;;;;;;13.00;11.80;;;;;;;27.75;67.53;96393.31;5058425;28;20249;-54
2022/07/25 06:41:07;;;;;;;12.65;11.70;;;;;;;27.76;69.58;96397.69;5058581;28;20207;-53
2022/07/25 06:43:33;;;;;;;13.13;11.95;;;;;;;27.73;65.85;96384.63;5058547;28;20226;-54
2022/07/25 06:46:01;;;;;;;70.18;17.35;;;;;;;28.22;67.08;96382.63;5057840;28;20230;-53
2022/07/25 06:48:29;;;;;;;14.65;12.00;;;;;;;28.40;65.12;96383.03;5057503;28;20322;-54
2022/07/25 06:50:56;;;;;;;12.73;11.48;;;;;;;28.51;66.83;96373.84;5057501;28;20207;-53
2022/07/25 06:53:22;;;;;;;12.15;10.95;;;;;;;28.64;67.51;96378.84;5058054;28;20333;-55
2022/07/25 06:55:49;;;;;;;13.82;12.10;;;;;;;28.78;62.56;96367.50;5052248;28;20261;-53
2022/07/25 06:58:16;;;;;;;13.45;12.23;;;;;;;28.84;64.05;96372.69;5057795;28;20195;-54
2022/07/25 07:00:42;;;;;;;12.05;10.98;;;;;;;28.99;63.35;96374.66;5058107;28;20294;-54
2022/07/25 07:03:09;;;;;;;13.45;12.05;;;;;;;29.19;61.07;96374.78;5057273;28;20250;-53
2022/07/25 07:05:40;;;;;;;12.63;11.63;;;;;;;29.14;63.28;96366.56;5057275;28;20195;-53
2022/07/25 07:08:06;;;;;;;13.25;12.15;;;;;;;29.28;61.01;96366.91;5057711;28;20514;-55
2022/07/25 07:10:33;;;;;;;12.73;11.50;;;;;;;29.38;63.64;96369.66;5057541;28;20632;-55
2022/07/25 07:13:04;;;;;;;13.25;11.98;;;;;;;29.28;62.57;96367.75;5057663;28;20209;-54
2022/07/25 07:15:31;;;;;;;13.00;11.60;;;;;;;29.54;62.89;96355.00;5047428;28;20357;-54
2022/07/25 07:17:58;;;;;;;12.65;11.43;;;;;;;29.68;62.32;96361.56;5057561;28;20203;-54
2022/07/25 07:20:24;;;;;;;13.60;12.20;;;;;;;29.80;62.42;96361.28;5057358;28;20213;-53
2022/07/25 07:22:52;;;;;;;12.88;11.73;;;;;;;29.80;61.66;96364.03;5057900;28;20199;-54
2022/07/25 07:25:20;;;;;;;12.98;11.73;;;;;;;29.89;58.84;96357.81;5057446;28;20230;-55
2022/07/25 07:27:47;;;;;;;11.38;10.23;;;;;;;30.23;60.43;96363.53;5057233;28;20201;-54
2022/07/25 07:30:14;;;;;;;11.95;10.85;;;;;;;30.28;58.94;96369.00;5055700;28;20192;-54
2022/07/25 07:32:41;;;;;;;12.13;10.90;;;;;;;30.61;56.51;96360.22;5058824;28;20256;-54
2022/07/25 07:35:08;;;;;;;12.23;11.32;;;;;;;30.64;58.67;96356.16;5060150;28;20230;-54
2022/07/25 07:37:36;;;;;;;12.40;11.25;;;;;;;30.65;58.71;96355.03;5057338;28;20199;-54
2022/07/25 07:40:05;;;;;;;14.80;12.25;;;;;;;30.67;58.34;96346.56;5066168;28;20218;-53
2022/07/25 07:42:38;;;;;;;11.80;10.80;;;;;;;30.86;56.94;96355.78;5066676;28;20200;-54
2022/07/25 07:45:10;;;;;;;11.93;10.65;;;;;;;31.05;57.18;96354.13;5064636;28;20529;-54
2022/07/25 07:47:37;;;;;;;13.25;11.40;;;;;;;31.03;54.27;96350.84;5057429;28;20239;-54
2022/07/25 07:50:04;;;;;;;11.15;10.35;;;;;;;31.50;55.51;96361.25;5052085;28;20213;-54
2022/07/25 07:52:31;;;;;;;11.63;10.77;;;;;;;31.44;55.84;96362.41;5056394;28;20199;-54
2022/07/25 07:57:44;;;;;;;29.65;13.93;;;;;;;31.73;53.37;96371.56;5060589;28;20221;-54
2022/07/25 08:00:11;;;;;;;18.08;11.30;;;;;;;31.69;53.33;96375.13;5061740;28;20242;-54
2022/07/25 08:02:42;;;;;;;12.88;11.55;;;;;;;31.71;53.02;96372.94;5058851;28;20202;-54
2022/07/25 08:05:10;;;;;;;10.25;9.52;;;;;;;31.93;51.84;96371.41;5056322;28;20203;-54
2022/07/25 08:07:37;;;;;;;10.38;9.57;;;;;;;32.12;50.50;96370.75;5051605;28;20298;-54
2022/07/25 08:10:04;;;;;;;10.55;9.57;;;;;;;31.94;47.97;96370.31;5056767;28;20213;-54
2022/07/25 08:12:31;;;;;;;12.07;11.02;;;;;;;31.88;52.22;96373.38;5056458;28;20663;-54
2022/07/25 08:14:59;;;;;;;12.65;11.32;;;;;;;31.99;55.07;96370.25;5056897;28;20207;-54
2022/07/25 08:17:25;;;;;;;11.15;10.25;;;;;;;32.30;52.23;96370.88;5056813;28;20233;-54
2022/07/25 08:19:52;;;;;;;9.85;9.05;;;;;;;32.29;47.09;96369.22;5057133;28;20207;-53
2022/07/25 08:22:19;;;;;;;9.55;8.85;;;;;;;32.28;47.16;96367.59;5056529;28;20223;-54
2022/07/25 08:24:45;;;;;;;9.25;8.65;;;;;;;32.30;43.38;96367.31;5055969;28;20290;-53
2022/07/25 08:27:12;;;;;;;9.05;8.35;;;;;;;32.34;43.33;96374.66;5056312;28;20218;-53
2022/07/25 08:29:40;;;;;;;9.45;8.65;;;;;;;32.37;43.67;96368.63;5051767;28;20217;-53
2022/07/25 08:32:08;;;;;;;8.85;8.15;;;;;;;32.39;46.00;96373.78;5056252;28;20524;-54
2022/07/25 08:34:35;;;;;;;8.88;8.27;;;;;;;32.38;43.65;96367.50;5055815;28;20705;-54
2022/07/25 08:37:01;;;;;;;9.20;8.45;;;;;;;32.55;46.67;96369.81;5055796;28;20303;-53
2022/07/25 08:39:28;;;;;;;9.18;8.32;;;;;;;32.64;46.33;96365.34;5056482;28;20218;-53
2022/07/25 08:41:55;;;;;;;8.35;7.72;;;;;;;32.62;40.63;96378.53;5055646;28;20623;-53
2022/07/25 08:44:22;;;;;;;8.35;7.75;;;;;;;32.45;40.35;96378.91;5056064;28;20209;-53
2022/07/25 08:46:49;;;;;;;7.78;7.18;;;;;;;32.26;40.56;96375.28;5055950;28;20646;-53
2022/07/25 08:49:17;;;;;;;8.38;7.70;;;;;;;32.28;41.59;96373.06;5056483;28;20205;-53
2022/07/25 08:51:46;;;;;;;8.85;8.15;;;;;;;32.27;42.61;96371.44;5055925;28;20214;-54
2022/07/25 08:54:13;;;;;;;8.70;7.97;;;;;;;32.35;41.74;96375.47;5055382;28;20560;-53
2022/07/25 08:56:39;;;;;;;8.98;8.18;;;;;;;32.50;42.16;96367.94;5055934;28;20219;-53
2022/07/25 08:59:06;;;;;;;9.32;8.52;;;;;;;32.48;44.51;96372.91;5055694;28;20237;-53
2022/07/25 09:01:33;;;;;;;9.27;8.48;;;;;;;32.63;42.14;96369.19;5054610;28;20249;-53
2022/07/25 09:04:00;;;;;;;8.23;7.63;;;;;;;32.73;42.67;96357.34;5055996;28;20643;-53
2022/07/25 09:06:28;;;;;;;8.18;7.57;;;;;;;32.79;41.97;96367.13;5054770;28;20199;-52
2022/07/25 09:08:56;;;;;;;8.95;8.07;;;;;;;32.82;42.32;96366.53;5051030;28;20227;-53
2022/07/25 09:11:30;;;;;;;8.98;8.27;;;;;;;32.90;40.83;96369.47;5055350;28;20738;-52
2022/07/25 09:14:01;;;;;;;8.90;8.18;;;;;;;32.44;41.15;96360.88;5052270;28;20197;-53
2022/07/25 09:16:31;;;;;;;9.40;8.45;;;;;;;32.53;41.77;96359.13;5044158;28;20227;-52
2022/07/25 09:19:12;;;;;;;8.90;8.13;;;;;;;32.58;39.70;96358.28;5055754;28;20203;-52
2022/07/25 09:21:43;;;;;;;8.73;8.13;;;;;;;32.70;40.38;96364.19;5055634;28;20215;-52
2022/07/25 09:24:11;;;;;;;7.75;7.22;;;;;;;32.63;39.41;96368.41;5055740;28;20591;-54
2022/07/25 09:26:45;;;;;;;8.45;7.75;;;;;;;32.18;38.97;96351.25;5055495;28;20636;-53
2022/07/25 09:29:16;;;;;;;8.32;7.65;;;;;;;32.20;40.32;96353.72;5055135;28;20275;-54
2022/07/25 09:31:43;;;;;;;8.02;7.43;;;;;;;32.30;40.96;96353.63;5055529;28;20223;-54
2022/07/25 09:34:11;;;;;;;8.10;7.50;;;;;;;32.40;40.12;96359.00;5067281;28;20684;-52
2022/07/25 09:36:42;;;;;;;8.50;7.90;;;;;;;32.32;39.36;96368.66;5054899;28;20223;-54
2022/07/25 09:39:10;;;;;;;8.13;7.32;;;;;;;32.32;39.38;96363.19;5054961;28;20184;-55
2022/07/25 09:41:38;;;;;;;7.20;6.60;;;;;;;32.40;38.04;96365.31;5054231;28;20230;-55
2022/07/25 09:44:15;;;;;;;7.43;6.72;;;;;;;32.55;37.63;96356.13;5054957;28;20264;-56
2022/07/25 09:46:42;;;;;;;7.22;6.63;;;;;;;32.62;37.69;96362.09;5054504;28;20215;-56
2022/07/25 09:49:13;;;;;;;7.13;6.63;;;;;;;32.89;36.55;96358.78;5054827;28;20209;-56
2022/07/25 09:51:39;;;;;;;7.20;6.65;;;;;;;33.14;38.81;96368.66;5054581;28;20253;-54
2022/07/25 09:54:06;;;;;;;7.30;6.55;;;;;;;33.22;34.86;96366.09;5054742;28;20207;-55
2022/07/25 09:56:35;;;;;;;7.05;6.55;;;;;;;33.15;35.84;96354.69;5054345;28;20277;-55
2022/07/25 09:59:02;;;;;;;6.75;6.32;;;;;;;33.03;36.27;96351.50;5062918;28;20257;-54
2022/07/25 10:01:35;;;;;;;6.85;6.35;;;;;;;33.22;35.76;96359.81;5066658;28;20199;-56
2022/07/25 10:04:10;;;;;;;6.40;6.00;;;;;;;33.20;35.68;96362.81;5058986;28;20195;-55
2022/07/25 10:06:40;;;;;;;6.95;6.40;;;;;;;33.33;34.00;96353.09;5041893;28;20190;-54
2022/07/25 10:09:11;;;;;;;7.10;6.53;;;;;;;33.22;35.73;96352.41;5054581;28;20241;-56
2022/07/25 10:11:39;;;;;;;6.60;6.10;;;;;;;33.29;34.58;96354.78;5045403;28;20211;-55
2022/07/25 10:14:10;;;;;;;6.13;5.72;;;;;;;33.42;35.28;96346.63;5053289;28;20227;-56
2022/07/25 10:16:45;;;;;;;6.60;6.10;;;;;;;33.40;34.85;96350.78;5054645;28;20215;-54
2022/07/25 10:19:12;;;;;;;6.35;5.78;;;;;;;33.42;34.83;96343.06;5052729;28;20183;-56
2022/07/25 10:21:39;;;;;;;7.03;6.25;;;;;;;33.62;35.26;96333.75;5054278;28;20226;-56
2022/07/25 10:24:07;;;;;;;6.90;6.30;;;;;;;33.76;35.68;96340.97;5054150;28;20290;-56
2022/07/25 10:26:37;;;;;;;6.40;5.95;;;;;;;33.69;33.43;96339.72;5053917;28;20191;-56
2022/07/25 10:29:09;;;;;;;6.00;5.50;;;;;;;33.85;32.99;96336.44;5048810;28;20199;-56
2022/07/25 10:31:37;;;;;;;6.40;5.80;;;;;;;33.91;33.61;96329.75;5054116;28;20187;-55
2022/07/25 10:34:06;;;;;;;5.95;5.55;;;;;;;33.92;33.72;96331.38;5066408;28;20195;-55
2022/07/25 10:36:42;;;;;;;6.70;6.20;;;;;;;34.15;34.47;96329.69;5054199;28;20219;-56
2022/07/25 10:39:10;;;;;;;6.22;5.82;;;;;;;34.21;32.43;96333.16;5049197;28;20206;-55
2022/07/25 10:41:38;;;;;;;6.10;5.70;;;;;;;34.39;32.73;96327.59;5048605;28;20195;-55
2022/07/25 10:44:13;;;;;;;5.90;5.40;;;;;;;34.14;31.67;96333.53;5053950;28;20203;-55
2022/07/25 10:46:39;;;;;;;5.80;5.40;;;;;;;34.02;31.97;96324.91;5053896;28;20219;-54
2022/07/25 10:49:07;;;;;;;5.93;5.53;;;;;;;34.07;32.04;96319.34;5052620;28;20265;-57
2022/07/25 10:51:36;;;;;;;6.00;5.60;;;;;;;34.02;31.02;96313.94;5054062;28;20558;-54
2022/07/25 10:54:12;;;;;;;6.18;5.68;;;;;;;34.00;32.66;96327.16;5044499;28;20300;-57
2022/07/25 10:56:51;;;;;;;6.43;5.93;;;;;;;34.03;32.46;96314.75;5053951;28;20580;-55
2022/07/25 10:59:27;;;;;;;6.30;5.50;;;;;;;34.20;34.79;96304.88;5054063;28;20221;-56
2022/07/25 11:01:54;;;;;;;8.68;6.07;;;;;;;34.33;30.85;96308.78;5054281;28;20248;-56
2022/07/25 11:04:21;;;;;;;5.22;4.82;;;;;;;34.24;31.14;96305.91;5054165;28;20207;-55
2022/07/25 11:06:48;;;;;;;5.90;5.50;;;;;;;34.34;33.68;96300.22;5054134;28;20530;-55
2022/07/25 11:09:15;;;;;;;6.00;5.50;;;;;;;34.38;30.35;96301.25;5053476;28;20280;-54
2022/07/25 11:11:47;;;;;;;5.88;5.47;;;;;;;34.26;32.98;96298.16;5053205;28;20632;-54
2022/07/25 11:14:19;;;;;;;5.85;5.45;;;;;;;34.34;32.61;96294.75;5047690;28;20241;-54
2022/07/25 11:16:49;;;;;;;6.10;5.60;;;;;;;34.53;33.16;96286.44;5052288;28;20219;-55
2022/07/25 11:19:17;;;;;;;6.00;5.43;;;;;;;34.82;32.74;96286.16;5057648;28;20205;-54
2022/07/25 11:21:45;;;;;;;5.97;5.55;;;;;;;35.00;33.01;96290.75;5057050;28;20213;-55
2022/07/25 11:24:12;;;;;;;5.80;5.43;;;;;;;35.04;29.78;96282.69;5057121;28;20585;-55